createdAt,value
2019-02-18T00:04:55.270Z,45
2019-02-18T00:09:55.320Z,44
2019-02-18T00:14:55.361Z,50
2019-02-18T00:19:55.173Z,50
2019-02-18T00:24:55.196Z,49
2019-02-18T00:29:55.456Z,46
2019-02-18T00:34:55.407Z,51
2019-02-18T00:39:55.351Z,52
2019-02-18T00:44:55.420Z,47
2019-02-18T00:49:55.420Z,46
2019-02-18T00:54:55.120Z,59
2019-02-18T00:59:55.535Z,49
2019-02-18T01:04:55.129Z,49
2019-02-18T01:09:55.383Z,46
2019-02-18T01:14:55.100Z,44
2019-02-18T01:19:55.198Z,57
2019-02-18T01:24:55.285Z,46
2019-02-18T01:29:55.303Z,51
2019-02-18T01:34:55.295Z,53
2019-02-18T01:39:55.423Z,44
2019-02-18T01:44:55.117Z,45
2019-02-18T01:49:55.051Z,58
2019-02-18T01:54:55.045Z,61
2019-02-18T01:59:55.086Z,53
2019-02-18T02:04:55.230Z,52
2019-02-18T02:09:55.188Z,51
2019-02-18T02:14:55.175Z,49
2019-02-18T02:19:55.083Z,54
2019-02-18T02:24:55.258Z,53
2019-02-18T02:29:55.120Z,61
2019-02-18T02:34:55.190Z,60
2019-02-18T02:39:55.222Z,60
2019-02-18T02:44:55.277Z,49
2019-02-18T02:49:55.018Z,58
2019-02-18T02:54:55.030Z,50
2019-02-18T02:59:55.018Z,58
2019-02-18T03:04:55.191Z,62
2019-02-18T03:09:55.206Z,46
2019-02-18T03:14:55.258Z,57
2019-02-18T03:19:55.245Z,46
2019-02-18T03:24:55.250Z,53
2019-02-18T03:29:55.236Z,60
2019-02-18T03:34:54.947Z,50
2019-02-18T03:39:54.999Z,50
2019-02-18T03:44:55.022Z,46
2019-02-18T03:49:55.133Z,46
2019-02-18T03:54:55.139Z,56
2019-02-18T03:59:55.041Z,44
2019-02-18T04:04:55.216Z,46
2019-02-18T04:09:55.082Z,46
2019-02-18T04:14:55.167Z,53
2019-02-18T04:19:55.057Z,56
2019-02-18T04:24:55.060Z,51
2019-02-18T04:29:55.105Z,56
2019-02-18T04:34:55.151Z,47
2019-02-18T04:39:54.784Z,46
2019-02-18T04:44:54.998Z,52
2019-02-18T04:49:54.965Z,42
2019-02-18T04:54:54.769Z,56
2019-02-18T04:59:55.150Z,49
2019-02-18T05:04:54.914Z,47
2019-02-18T05:09:54.931Z,49
2019-02-18T05:14:55.001Z,40
2019-02-18T05:19:55.068Z,51
2019-02-18T05:24:54.745Z,41
2019-02-18T05:29:54.744Z,41
2019-02-18T05:34:54.771Z,48
2019-02-18T05:39:55.547Z,49
2019-02-18T05:44:54.967Z,44
2019-02-18T05:49:55.015Z,47
2019-02-18T05:54:54.761Z,50
2019-02-18T05:59:55.041Z,48
2019-02-18T06:04:54.927Z,45
2019-02-18T06:09:54.788Z,47
2019-02-18T06:14:54.881Z,52
2019-02-18T06:19:54.794Z,46
2019-02-18T06:24:54.938Z,45
2019-02-18T06:29:54.960Z,50
2019-02-18T06:34:54.637Z,53
2019-02-18T06:39:54.910Z,44
2019-02-18T06:44:54.596Z,43
2019-02-18T06:49:54.854Z,46
2019-02-18T06:54:54.931Z,45
2019-02-18T06:59:54.836Z,37
2019-02-18T07:04:54.864Z,37
2019-02-18T07:09:54.846Z,38
2019-02-18T07:14:54.662Z,48
2019-02-18T07:19:54.691Z,47
2019-02-18T07:24:54.823Z,51
2019-02-18T07:29:54.809Z,39
2019-02-18T07:34:54.757Z,39
2019-02-18T07:40:01.132Z,35
2019-02-18T07:44:54.742Z,43
2019-02-18T07:49:54.671Z,45
2019-02-18T07:54:54.679Z,42
2019-02-18T07:59:54.726Z,41
2019-02-18T08:04:54.500Z,35
2019-02-18T08:09:54.824Z,38
2019-02-18T08:14:54.522Z,49
2019-02-18T08:19:54.448Z,44
2019-02-18T08:24:54.514Z,56
2019-02-18T08:29:54.506Z,47
2019-02-18T08:34:54.580Z,49
2019-02-18T08:39:54.538Z,50
2019-02-18T08:44:54.667Z,49
2019-02-18T08:49:54.571Z,38
2019-02-18T08:54:56.845Z,52
2019-02-18T08:59:54.546Z,45
2019-02-18T09:04:54.505Z,40
2019-02-18T09:09:54.499Z,39
2019-02-18T09:14:54.558Z,44
2019-02-18T09:19:54.439Z,39
2019-02-18T09:24:54.618Z,43
2019-02-18T09:29:54.671Z,45
2019-02-18T09:35:01.600Z,36
2019-02-18T09:39:54.448Z,40
2019-02-18T09:44:54.551Z,40
2019-02-18T09:49:54.447Z,51
2019-02-18T09:54:54.455Z,43
2019-02-18T09:59:54.552Z,41
2019-02-18T10:04:54.617Z,47
2019-02-18T10:09:54.506Z,40
2019-02-18T10:14:54.706Z,41
2019-02-18T10:19:54.482Z,40
2019-02-18T10:24:54.479Z,47
2019-02-18T10:29:54.485Z,53
2019-02-18T10:34:54.476Z,54
2019-02-18T10:39:54.362Z,39
2019-02-18T10:44:54.529Z,44
2019-02-18T10:49:54.530Z,62
2019-02-18T10:54:54.354Z,55
2019-02-18T10:59:54.424Z,40
2019-02-18T11:04:54.552Z,44
2019-02-18T11:09:54.205Z,49
2019-02-18T11:14:54.317Z,50
2019-02-18T11:19:54.302Z,52
2019-02-18T11:24:54.256Z,51
2019-02-18T11:29:54.513Z,44
2019-02-18T11:34:54.178Z,44
2019-02-18T11:39:54.436Z,46
2019-02-18T11:44:54.516Z,48
2019-02-18T11:49:55.268Z,49
2019-02-18T11:54:54.385Z,42
2019-02-18T11:59:54.399Z,40
2019-02-18T12:04:54.373Z,50
2019-02-18T12:09:54.303Z,50
2019-02-18T12:14:54.106Z,43
2019-02-18T12:19:54.417Z,43
2019-02-18T12:24:54.167Z,39
2019-02-18T12:29:54.184Z,38
2019-02-18T12:34:54.285Z,32
2019-02-18T12:39:54.301Z,35
2019-02-18T12:44:54.295Z,34
2019-02-18T12:49:54.209Z,36
2019-02-18T12:54:54.282Z,38
2019-02-18T12:59:54.370Z,32
2019-02-18T13:04:54.042Z,45
2019-02-18T13:09:54.341Z,33
2019-02-18T13:14:54.056Z,35
2019-02-18T13:19:54.357Z,33
2019-02-18T13:24:54.325Z,34
2019-02-18T13:29:54.303Z,36
2019-02-18T13:34:54.182Z,35
2019-02-18T13:39:54.303Z,30
2019-02-18T13:44:54.008Z,32
2019-02-18T13:49:54.037Z,34
2019-02-18T13:54:54.039Z,42
2019-02-18T13:59:54.105Z,47
2019-02-18T14:04:54.019Z,36
2019-02-18T14:09:54.051Z,39
2019-02-18T14:14:54.226Z,42
2019-02-18T14:19:54.215Z,36
2019-02-18T14:24:53.916Z,40
2019-02-18T14:29:53.888Z,44
2019-02-18T14:34:54.004Z,42
2019-02-18T14:39:53.906Z,42
2019-02-18T14:44:53.919Z,41
2019-02-18T14:49:53.900Z,47
2019-02-18T14:54:54.157Z,42
2019-02-18T14:59:54.190Z,46
2019-02-18T15:04:54.130Z,50
2019-02-18T15:09:54.040Z,51
2019-02-18T15:14:54.051Z,50
2019-02-18T15:19:54.028Z,55
2019-02-18T15:24:54.113Z,53
2019-02-18T15:29:54.178Z,47
2019-02-18T15:34:54.158Z,41
2019-02-18T15:39:54.140Z,50
2019-02-18T15:44:53.853Z,44
2019-02-18T15:49:53.944Z,54
2019-02-18T15:54:54.078Z,46
2019-02-18T15:59:54.007Z,46
2019-02-18T16:04:54.074Z,53
2019-02-18T16:09:54.070Z,51
2019-02-18T16:14:54.068Z,48
2019-02-18T16:19:53.974Z,43
2019-02-18T16:24:53.955Z,47
2019-02-18T16:29:53.952Z,57
2019-02-18T16:34:53.964Z,48
2019-02-18T16:39:53.866Z,51
2019-02-18T16:44:53.934Z,53
2019-02-18T16:49:53.885Z,53
2019-02-18T16:54:53.866Z,53
2019-02-18T16:59:54.001Z,49
2019-02-18T17:04:53.698Z,53
2019-02-18T17:09:53.704Z,52
2019-02-18T17:14:53.787Z,57
2019-02-18T17:19:53.829Z,55
2019-02-18T17:24:53.918Z,58
2019-02-18T17:29:53.639Z,46
2019-02-18T17:34:53.638Z,55
2019-02-18T17:39:53.594Z,52
2019-02-18T17:44:53.721Z,59
2019-02-18T17:49:53.650Z,48
2019-02-18T17:54:53.670Z,54
2019-02-18T17:59:53.707Z,53
2019-02-18T18:04:53.811Z,50
2019-02-18T18:09:53.806Z,44
2019-02-18T18:14:53.920Z,53
2019-02-18T18:19:53.626Z,46
2019-02-18T18:24:53.696Z,56
2019-02-18T18:29:53.619Z,57
2019-02-18T18:34:53.781Z,46
2019-02-18T18:39:53.716Z,49
2019-02-18T18:44:53.525Z,44
2019-02-18T18:49:53.504Z,53
2019-02-18T18:54:53.661Z,52
2019-02-18T18:59:53.704Z,41
2019-02-18T19:04:53.723Z,57
2019-02-18T19:09:53.746Z,52
2019-02-18T19:14:53.826Z,71
2019-02-18T19:19:57.819Z,65
2019-02-18T19:24:53.720Z,75
2019-02-18T19:29:53.707Z,72
2019-02-18T19:34:53.456Z,80
2019-02-18T19:39:53.674Z,75
2019-02-18T19:44:53.647Z,59
2019-02-18T19:49:53.433Z,51
2019-02-18T19:54:53.513Z,60
2019-02-18T19:59:53.427Z,66
2019-02-18T20:04:53.411Z,64
2019-02-18T20:09:53.399Z,68
2019-02-18T20:14:53.511Z,65
2019-02-18T20:19:53.390Z,64
2019-02-18T20:24:53.398Z,60
2019-02-18T20:29:53.439Z,60
2019-02-18T20:34:53.428Z,60
2019-02-18T20:39:53.345Z,59
2019-02-18T20:44:53.337Z,64
2019-02-18T20:49:53.627Z,68
2019-02-18T20:54:53.569Z,64
2019-02-18T20:59:53.482Z,64
2019-02-18T21:04:53.336Z,70
2019-02-18T21:09:53.529Z,73
2019-02-18T21:14:53.573Z,77
2019-02-18T21:19:53.457Z,66
2019-02-18T21:24:53.315Z,72
2019-02-18T21:29:53.267Z,73
2019-02-18T21:34:53.346Z,70
2019-02-18T21:39:53.353Z,80
2019-02-18T21:44:53.457Z,70
2019-02-18T21:49:53.447Z,74
2019-02-18T21:54:53.285Z,75
2019-02-18T21:59:53.334Z,81
2019-02-18T22:04:53.247Z,75
2019-02-18T22:09:53.583Z,85
2019-02-18T22:14:53.296Z,76
2019-02-18T22:19:53.278Z,78
2019-02-18T22:24:53.399Z,81
2019-02-18T22:29:53.576Z,83
2019-02-18T22:34:53.364Z,66
2019-02-18T22:39:53.311Z,78
2019-02-18T22:44:53.505Z,74
2019-02-18T22:49:53.298Z,69
2019-02-18T22:54:53.372Z,66
2019-02-18T22:59:53.398Z,56
2019-02-18T23:04:53.328Z,49
2019-02-18T23:09:53.312Z,52
2019-02-18T23:14:53.459Z,38
2019-02-18T23:19:53.210Z,29
2019-02-18T23:24:53.081Z,24
2019-02-18T23:29:53.318Z,25
2019-02-18T23:34:53.163Z,14
2019-02-18T23:39:53.064Z,22
2019-02-18T23:44:59.122Z,21
2019-02-18T23:49:53.186Z,24
2019-02-18T23:54:53.334Z,16
2019-02-18T23:59:53.228Z,13
